Terminal Aerodrome Forecast
Issued by NWS

Home | Current Version | Previous Version | Text Only | Print | Product List | Glossary On
Versions: 1 2 3 4 5 6 7 8 9 10 11 12 13 14 15 16 17 18
000
FTUS41 KGYX 211735 AAD
TAFPSM
TAF AMD
KPSM 211735Z 2118/2212 35006KT P6SM SCT010 OVC040
      TEMPO 2118/2122 2SM -SN OVC010
     FM212200 01004KT P6SM OVC030
     FM220000 VRB03KT P6SM OVC035
     FM220400 VRB03KT P6SM OVC030
     FM221000 04004KT P6SM OVC015=

USA.gov is the U.S. government's official web portal to all federal, state and local government web resources and services.